sensor_id;sensor_type;location;lat;lon;timestamp;P1;durP1;ratioP1;P2;durP2;ratioP2
10643;SDS011;5370;50.132;8.626;2022-07-22T00:02:10;7.55;;;6.45;;
10643;SDS011;5370;50.132;8.626;2022-07-22T00:04:35;7.97;;;7.10;;
10643;SDS011;5370;50.132;8.626;2022-07-22T00:07:01;7.85;;;7.00;;
10643;SDS011;5370;50.132;8.626;2022-07-22T00:09:27;9.50;;;6.78;;
10643;SDS011;5370;50.132;8.626;2022-07-22T00:11:53;8.05;;;7.15;;
10643;SDS011;5370;50.132;8.626;2022-07-22T00:14:18;7.60;;;6.80;;
10643;SDS011;5370;50.132;8.626;2022-07-22T00:16:44;8.45;;;6.45;;
10643;SDS011;5370;50.132;8.626;2022-07-22T00:19:10;8.02;;;7.10;;
10643;SDS011;5370;50.132;8.626;2022-07-22T00:21:35;6.72;;;6.13;;
10643;SDS011;5370;50.132;8.626;2022-07-22T00:24:01;9.60;;;6.88;;
10643;SDS011;5370;50.132;8.626;2022-07-22T00:26:27;11.13;;;6.47;;
10643;SDS011;5370;50.132;8.626;2022-07-22T00:28:52;9.25;;;6.78;;
10643;SDS011;5370;50.132;8.626;2022-07-22T00:31:18;8.55;;;6.53;;
10643;SDS011;5370;50.132;8.626;2022-07-22T00:33:43;8.63;;;7.07;;
10643;SDS011;5370;50.132;8.626;2022-07-22T00:36:09;8.20;;;6.38;;
10643;SDS011;5370;50.132;8.626;2022-07-22T00:38:35;8.05;;;6.18;;
10643;SDS011;5370;50.132;8.626;2022-07-22T00:41:00;7.85;;;7.07;;
10643;SDS011;5370;50.132;8.626;2022-07-22T00:43:26;7.25;;;6.53;;
10643;SDS011;5370;50.132;8.626;2022-07-22T00:45:52;7.85;;;6.53;;
10643;SDS011;5370;50.132;8.626;2022-07-22T00:48:18;8.77;;;6.40;;
10643;SDS011;5370;50.132;8.626;2022-07-22T00:50:43;8.10;;;6.97;;
10643;SDS011;5370;50.132;8.626;2022-07-22T00:53:10;7.95;;;6.65;;
10643;SDS011;5370;50.132;8.626;2022-07-22T00:55:36;9.00;;;7.07;;
10643;SDS011;5370;50.132;8.626;2022-07-22T00:58:03;9.30;;;7.85;;
10643;SDS011;5370;50.132;8.626;2022-07-22T01:00:28;7.03;;;6.32;;
10643;SDS011;5370;50.132;8.626;2022-07-22T01:02:55;8.88;;;7.82;;
10643;SDS011;5370;50.132;8.626;2022-07-22T01:05:20;13.18;;;6.90;;
10643;SDS011;5370;50.132;8.626;2022-07-22T01:07:46;7.90;;;6.57;;
10643;SDS011;5370;50.132;8.626;2022-07-22T01:10:12;8.85;;;5.95;;
10643;SDS011;5370;50.132;8.626;2022-07-22T01:12:38;7.00;;;6.40;;
10643;SDS011;5370;50.132;8.626;2022-07-22T01:15:04;6.80;;;6.03;;
10643;SDS011;5370;50.132;8.626;2022-07-22T01:17:30;7.07;;;6.00;;
10643;SDS011;5370;50.132;8.626;2022-07-22T01:20:00;6.78;;;5.18;;
10643;SDS011;5370;50.132;8.626;2022-07-22T01:22:28;5.47;;;5.03;;
10643;SDS011;5370;50.132;8.626;2022-07-22T01:24:53;6.65;;;6.05;;
10643;SDS011;5370;50.132;8.626;2022-07-22T01:27:19;7.22;;;6.00;;
10643;SDS011;5370;50.132;8.626;2022-07-22T01:29:44;6.25;;;5.65;;
10643;SDS011;5370;50.132;8.626;2022-07-22T01:32:10;9.30;;;6.45;;
10643;SDS011;5370;50.132;8.626;2022-07-22T01:34:35;6.53;;;5.93;;
10643;SDS011;5370;50.132;8.626;2022-07-22T01:37:01;11.48;;;5.93;;
10643;SDS011;5370;50.132;8.626;2022-07-22T01:39:27;6.30;;;5.68;;
10643;SDS011;5370;50.132;8.626;2022-07-22T01:41:52;7.18;;;5.78;;
10643;SDS011;5370;50.132;8.626;2022-07-22T01:44:18;6.50;;;5.55;;
10643;SDS011;5370;50.132;8.626;2022-07-22T01:46:43;6.88;;;4.80;;
10643;SDS011;5370;50.132;8.626;2022-07-22T01:49:09;5.70;;;5.20;;
10643;SDS011;5370;50.132;8.626;2022-07-22T01:51:34;6.15;;;4.82;;
10643;SDS011;5370;50.132;8.626;2022-07-22T01:54:00;7.13;;;4.78;;
10643;SDS011;5370;50.132;8.626;2022-07-22T01:56:25;5.28;;;4.78;;
10643;SDS011;5370;50.132;8.626;2022-07-22T01:58:51;6.10;;;5.35;;
10643;SDS011;5370;50.132;8.626;2022-07-22T02:01:16;6.53;;;4.82;;
10643;SDS011;5370;50.132;8.626;2022-07-22T02:03:42;6.05;;;5.45;;
10643;SDS011;5370;50.132;8.626;2022-07-22T02:06:07;5.68;;;4.20;;
10643;SDS011;5370;50.132;8.626;2022-07-22T02:08:33;6.32;;;4.85;;
10643;SDS011;5370;50.132;8.626;2022-07-22T02:10:59;7.50;;;4.93;;
10643;SDS011;5370;50.132;8.626;2022-07-22T02:13:24;5.97;;;5.38;;
10643;SDS011;5370;50.132;8.626;2022-07-22T02:15:50;5.13;;;4.60;;
10643;SDS011;5370;50.132;8.626;2022-07-22T02:18:16;5.43;;;4.75;;
10643;SDS011;5370;50.132;8.626;2022-07-22T02:20:43;5.78;;;5.10;;
10643;SDS011;5370;50.132;8.626;2022-07-22T02:23:09;6.07;;;5.40;;
10643;SDS011;5370;50.132;8.626;2022-07-22T02:25:36;6.88;;;4.93;;
10643;SDS011;5370;50.132;8.626;2022-07-22T02:28:02;6.85;;;5.18;;
10643;SDS011;5370;50.132;8.626;2022-07-22T02:30:28;6.50;;;5.15;;
10643;SDS011;5370;50.132;8.626;2022-07-22T02:32:54;5.82;;;5.22;;
10643;SDS011;5370;50.132;8.626;2022-07-22T02:35:19;6.65;;;4.88;;
10643;SDS011;5370;50.132;8.626;2022-07-22T02:37:45;5.90;;;5.40;;
10643;SDS011;5370;50.132;8.626;2022-07-22T02:40:11;8.88;;;4.97;;
10643;SDS011;5370;50.132;8.626;2022-07-22T02:42:36;7.45;;;5.40;;
10643;SDS011;5370;50.132;8.626;2022-07-22T02:45:02;6.38;;;5.78;;
10643;SDS011;5370;50.132;8.626;2022-07-22T02:47:28;5.57;;;5.18;;
10643;SDS011;5370;50.132;8.626;2022-07-22T02:49:54;6.35;;;5.72;;
10643;SDS011;5370;50.132;8.626;2022-07-22T02:52:19;8.07;;;5.68;;
10643;SDS011;5370;50.132;8.626;2022-07-22T02:54:45;6.50;;;5.85;;
10643;SDS011;5370;50.132;8.626;2022-07-22T02:57:10;6.55;;;5.20;;
10643;SDS011;5370;50.132;8.626;2022-07-22T02:59:36;5.80;;;5.20;;
10643;SDS011;5370;50.132;8.626;2022-07-22T03:02:02;6.60;;;6.00;;
10643;SDS011;5370;50.132;8.626;2022-07-22T03:04:27;6.35;;;5.75;;
10643;SDS011;5370;50.132;8.626;2022-07-22T03:06:53;5.57;;;5.07;;
10643;SDS011;5370;50.132;8.626;2022-07-22T03:09:18;6.88;;;5.88;;
10643;SDS011;5370;50.132;8.626;2022-07-22T03:11:44;9.25;;;5.78;;
10643;SDS011;5370;50.132;8.626;2022-07-22T03:14:09;6.75;;;5.78;;
10643;SDS011;5370;50.132;8.626;2022-07-22T03:16:36;6.30;;;5.25;;
10643;SDS011;5370;50.132;8.626;2022-07-22T03:19:02;9.07;;;5.70;;
10643;SDS011;5370;50.132;8.626;2022-07-22T03:21:27;6.32;;;5.35;;
10643;SDS011;5370;50.132;8.626;2022-07-22T03:23:53;7.75;;;5.47;;
10643;SDS011;5370;50.132;8.626;2022-07-22T03:26:19;5.53;;;5.03;;
10643;SDS011;5370;50.132;8.626;2022-07-22T03:28:46;5.85;;;5.05;;
10643;SDS011;5370;50.132;8.626;2022-07-22T03:31:12;9.52;;;5.85;;
10643;SDS011;5370;50.132;8.626;2022-07-22T03:33:38;5.63;;;5.13;;
10643;SDS011;5370;50.132;8.626;2022-07-22T03:36:04;6.30;;;5.70;;
10643;SDS011;5370;50.132;8.626;2022-07-22T03:38:35;8.88;;;5.80;;
10643;SDS011;5370;50.132;8.626;2022-07-22T03:41:02;7.35;;;5.13;;
10643;SDS011;5370;50.132;8.626;2022-07-22T03:43:28;10.05;;;5.90;;
10643;SDS011;5370;50.132;8.626;2022-07-22T03:45:53;7.50;;;5.97;;
10643;SDS011;5370;50.132;8.626;2022-07-22T03:48:19;5.95;;;5.35;;
10643;SDS011;5370;50.132;8.626;2022-07-22T03:50:44;8.35;;;6.47;;
10643;SDS011;5370;50.132;8.626;2022-07-22T03:53:10;8.43;;;5.70;;
10643;SDS011;5370;50.132;8.626;2022-07-22T03:55:35;6.70;;;5.53;;
10643;SDS011;5370;50.132;8.626;2022-07-22T03:58:01;9.75;;;6.32;;
10643;SDS011;5370;50.132;8.626;2022-07-22T04:00:27;6.40;;;5.80;;
10643;SDS011;5370;50.132;8.626;2022-07-22T04:02:53;7.72;;;6.30;;
10643;SDS011;5370;50.132;8.626;2022-07-22T04:05:18;6.85;;;6.07;;
10643;SDS011;5370;50.132;8.626;2022-07-22T04:07:44;6.32;;;5.47;;
10643;SDS011;5370;50.132;8.626;2022-07-22T04:10:09;6.65;;;5.88;;
10643;SDS011;5370;50.132;8.626;2022-07-22T04:12:36;6.95;;;5.75;;
10643;SDS011;5370;50.132;8.626;2022-07-22T04:15:03;8.70;;;6.72;;
10643;SDS011;5370;50.132;8.626;2022-07-22T04:17:30;9.52;;;5.90;;
10643;SDS011;5370;50.132;8.626;2022-07-22T04:19:55;6.97;;;5.88;;
10643;SDS011;5370;50.132;8.626;2022-07-22T04:22:22;8.80;;;5.85;;
10643;SDS011;5370;50.132;8.626;2022-07-22T04:24:47;8.82;;;5.47;;
10643;SDS011;5370;50.132;8.626;2022-07-22T04:27:13;9.93;;;5.43;;
10643;SDS011;5370;50.132;8.626;2022-07-22T04:29:38;11.05;;;6.22;;
10643;SDS011;5370;50.132;8.626;2022-07-22T04:32:04;6.05;;;5.43;;
10643;SDS011;5370;50.132;8.626;2022-07-22T04:34:30;6.85;;;5.50;;
10643;SDS011;5370;50.132;8.626;2022-07-22T04:36:55;6.57;;;4.50;;
10643;SDS011;5370;50.132;8.626;2022-07-22T04:39:21;6.72;;;5.43;;
10643;SDS011;5370;50.132;8.626;2022-07-22T04:41:47;7.20;;;5.50;;
10643;SDS011;5370;50.132;8.626;2022-07-22T04:44:12;9.23;;;5.57;;
10643;SDS011;5370;50.132;8.626;2022-07-22T04:46:38;6.35;;;5.75;;
10643;SDS011;5370;50.132;8.626;2022-07-22T04:49:03;5.47;;;4.97;;
10643;SDS011;5370;50.132;8.626;2022-07-22T04:51:29;6.82;;;5.43;;
10643;SDS011;5370;50.132;8.626;2022-07-22T04:53:54;6.75;;;4.93;;
10643;SDS011;5370;50.132;8.626;2022-07-22T04:56:20;6.88;;;5.32;;
10643;SDS011;5370;50.132;8.626;2022-07-22T04:58:45;6.38;;;5.72;;
10643;SDS011;5370;50.132;8.626;2022-07-22T05:01:11;6.22;;;5.43;;
10643;SDS011;5370;50.132;8.626;2022-07-22T05:03:38;6.43;;;5.78;;
10643;SDS011;5370;50.132;8.626;2022-07-22T05:06:04;5.85;;;5.32;;
10643;SDS011;5370;50.132;8.626;2022-07-22T05:08:29;6.72;;;5.65;;
10643;SDS011;5370;50.132;8.626;2022-07-22T05:10:55;8.05;;;5.82;;
10643;SDS011;5370;50.132;8.626;2022-07-22T05:13:21;7.32;;;6.05;;
10643;SDS011;5370;50.132;8.626;2022-07-22T05:15:46;10.65;;;6.57;;
10643;SDS011;5370;50.132;8.626;2022-07-22T05:18:12;9.90;;;7.00;;
10643;SDS011;5370;50.132;8.626;2022-07-22T05:20:37;11.43;;;7.57;;
10643;SDS011;5370;50.132;8.626;2022-07-22T05:23:03;9.05;;;7.40;;
10643;SDS011;5370;50.132;8.626;2022-07-22T05:25:28;8.63;;;7.10;;
10643;SDS011;5370;50.132;8.626;2022-07-22T05:27:54;9.43;;;7.07;;
10643;SDS011;5370;50.132;8.626;2022-07-22T05:30:20;9.45;;;6.78;;
10643;SDS011;5370;50.132;8.626;2022-07-22T05:32:46;7.45;;;6.40;;
10643;SDS011;5370;50.132;8.626;2022-07-22T05:35:12;9.98;;;6.93;;
10643;SDS011;5370;50.132;8.626;2022-07-22T05:37:38;7.40;;;5.97;;
10643;SDS011;5370;50.132;8.626;2022-07-22T05:40:03;9.98;;;6.95;;
10643;SDS011;5370;50.132;8.626;2022-07-22T05:42:30;9.02;;;8.13;;
10643;SDS011;5370;50.132;8.626;2022-07-22T05:44:55;7.75;;;6.57;;
10643;SDS011;5370;50.132;8.626;2022-07-22T05:47:21;7.60;;;6.82;;
10643;SDS011;5370;50.132;8.626;2022-07-22T05:49:46;7.07;;;6.38;;
10643;SDS011;5370;50.132;8.626;2022-07-22T05:52:12;8.27;;;6.93;;
10643;SDS011;5370;50.132;8.626;2022-07-22T05:54:38;7.20;;;6.40;;
10643;SDS011;5370;50.132;8.626;2022-07-22T05:57:04;8.63;;;6.88;;
10643;SDS011;5370;50.132;8.626;2022-07-22T05:59:33;8.13;;;6.85;;
10643;SDS011;5370;50.132;8.626;2022-07-22T06:01:58;7.57;;;6.75;;
10643;SDS011;5370;50.132;8.626;2022-07-22T06:04:24;8.52;;;6.63;;
10643;SDS011;5370;50.132;8.626;2022-07-22T06:06:49;10.10;;;7.95;;
10643;SDS011;5370;50.132;8.626;2022-07-22T06:09:15;7.47;;;6.82;;
10643;SDS011;5370;50.132;8.626;2022-07-22T06:11:40;7.35;;;6.70;;
10643;SDS011;5370;50.132;8.626;2022-07-22T06:14:06;8.70;;;7.32;;
10643;SDS011;5370;50.132;8.626;2022-07-22T06:16:31;7.50;;;6.40;;
10643;SDS011;5370;50.132;8.626;2022-07-22T06:18:59;9.40;;;7.70;;
10643;SDS011;5370;50.132;8.626;2022-07-22T06:21:24;12.18;;;7.88;;
10643;SDS011;5370;50.132;8.626;2022-07-22T06:23:50;7.30;;;6.60;;
10643;SDS011;5370;50.132;8.626;2022-07-22T06:26:15;7.97;;;6.55;;
10643;SDS011;5370;50.132;8.626;2022-07-22T06:28:41;8.50;;;6.57;;
10643;SDS011;5370;50.132;8.626;2022-07-22T06:31:06;9.48;;;6.88;;
10643;SDS011;5370;50.132;8.626;2022-07-22T06:33:32;7.32;;;6.43;;
10643;SDS011;5370;50.132;8.626;2022-07-22T06:35:58;7.55;;;6.53;;
10643;SDS011;5370;50.132;8.626;2022-07-22T06:38:24;7.30;;;6.60;;
10643;SDS011;5370;50.132;8.626;2022-07-22T06:40:49;8.73;;;6.10;;
10643;SDS011;5370;50.132;8.626;2022-07-22T06:43:15;7.85;;;6.15;;
10643;SDS011;5370;50.132;8.626;2022-07-22T06:45:40;9.50;;;5.90;;
10643;SDS011;5370;50.132;8.626;2022-07-22T06:48:06;7.20;;;5.93;;
10643;SDS011;5370;50.132;8.626;2022-07-22T06:50:32;6.25;;;5.68;;
10643;SDS011;5370;50.132;8.626;2022-07-22T06:52:57;7.28;;;6.53;;
10643;SDS011;5370;50.132;8.626;2022-07-22T06:55:23;7.55;;;6.10;;
10643;SDS011;5370;50.132;8.626;2022-07-22T06:57:48;6.93;;;6.32;;
10643;SDS011;5370;50.132;8.626;2022-07-22T07:00:14;6.47;;;5.85;;
10643;SDS011;5370;50.132;8.626;2022-07-22T07:02:40;9.13;;;6.45;;
10643;SDS011;5370;50.132;8.626;2022-07-22T07:05:06;7.90;;;6.28;;
10643;SDS011;5370;50.132;8.626;2022-07-22T07:07:32;8.70;;;6.53;;
10643;SDS011;5370;50.132;8.626;2022-07-22T07:09:57;6.25;;;5.65;;
10643;SDS011;5370;50.132;8.626;2022-07-22T07:12:23;5.97;;;5.38;;
10643;SDS011;5370;50.132;8.626;2022-07-22T07:14:48;6.82;;;4.95;;
10643;SDS011;5370;50.132;8.626;2022-07-22T07:17:14;6.93;;;4.55;;
10643;SDS011;5370;50.132;8.626;2022-07-22T07:19:40;6.97;;;4.30;;
10643;SDS011;5370;50.132;8.626;2022-07-22T07:22:06;4.55;;;4.00;;
10643;SDS011;5370;50.132;8.626;2022-07-22T07:24:32;4.28;;;3.88;;
10643;SDS011;5370;50.132;8.626;2022-07-22T07:26:57;5.65;;;3.78;;
10643;SDS011;5370;50.132;8.626;2022-07-22T07:29:23;4.15;;;3.80;;
10643;SDS011;5370;50.132;8.626;2022-07-22T07:31:49;9.25;;;4.20;;
10643;SDS011;5370;50.132;8.626;2022-07-22T07:34:14;7.15;;;4.35;;
10643;SDS011;5370;50.132;8.626;2022-07-22T07:36:40;6.28;;;4.05;;
10643;SDS011;5370;50.132;8.626;2022-07-22T07:39:06;5.88;;;4.72;;
10643;SDS011;5370;50.132;8.626;2022-07-22T07:41:31;6.10;;;5.28;;
10643;SDS011;5370;50.132;8.626;2022-07-22T07:43:57;4.55;;;4.15;;
10643;SDS011;5370;50.132;8.626;2022-07-22T07:46:23;4.93;;;3.72;;
10643;SDS011;5370;50.132;8.626;2022-07-22T07:48:48;5.22;;;4.60;;
10643;SDS011;5370;50.132;8.626;2022-07-22T07:51:14;5.30;;;4.80;;
10643;SDS011;5370;50.132;8.626;2022-07-22T07:53:40;5.60;;;4.35;;
10643;SDS011;5370;50.132;8.626;2022-07-22T07:56:05;4.57;;;4.20;;
10643;SDS011;5370;50.132;8.626;2022-07-22T07:58:31;4.00;;;3.65;;
10643;SDS011;5370;50.132;8.626;2022-07-22T08:00:57;3.80;;;3.35;;
10643;SDS011;5370;50.132;8.626;2022-07-22T08:03:22;5.55;;;3.47;;
10643;SDS011;5370;50.132;8.626;2022-07-22T08:05:48;5.30;;;3.85;;
10643;SDS011;5370;50.132;8.626;2022-07-22T08:08:14;4.15;;;3.75;;
10643;SDS011;5370;50.132;8.626;2022-07-22T08:10:40;4.88;;;4.00;;
10643;SDS011;5370;50.132;8.626;2022-07-22T08:13:07;3.88;;;3.58;;
10643;SDS011;5370;50.132;8.626;2022-07-22T08:15:32;6.65;;;3.40;;
10643;SDS011;5370;50.132;8.626;2022-07-22T08:17:58;7.60;;;3.60;;
10643;SDS011;5370;50.132;8.626;2022-07-22T08:20:24;5.50;;;3.50;;
10643;SDS011;5370;50.132;8.626;2022-07-22T08:22:52;5.82;;;3.38;;
10643;SDS011;5370;50.132;8.626;2022-07-22T08:25:18;4.85;;;3.50;;
10643;SDS011;5370;50.132;8.626;2022-07-22T08:27:44;3.83;;;3.53;;
10643;SDS011;5370;50.132;8.626;2022-07-22T08:30:10;4.38;;;4.05;;
10643;SDS011;5370;50.132;8.626;2022-07-22T08:32:36;3.78;;;3.47;;
10643;SDS011;5370;50.132;8.626;2022-07-22T08:35:02;4.88;;;3.85;;
10643;SDS011;5370;50.132;8.626;2022-07-22T08:37:29;4.47;;;4.07;;
10643;SDS011;5370;50.132;8.626;2022-07-22T08:39:54;5.18;;;4.40;;
10643;SDS011;5370;50.132;8.626;2022-07-22T08:42:21;5.50;;;3.80;;
10643;SDS011;5370;50.132;8.626;2022-07-22T08:44:47;3.92;;;3.58;;
10643;SDS011;5370;50.132;8.626;2022-07-22T08:47:14;4.30;;;3.80;;
10643;SDS011;5370;50.132;8.626;2022-07-22T08:49:39;3.95;;;3.45;;
10643;SDS011;5370;50.132;8.626;2022-07-22T08:52:05;3.75;;;3.42;;
10643;SDS011;5370;50.132;8.626;2022-07-22T08:54:30;4.65;;;3.63;;
10643;SDS011;5370;50.132;8.626;2022-07-22T08:56:56;4.40;;;4.00;;
10643;SDS011;5370;50.132;8.626;2022-07-22T08:59:22;5.05;;;3.80;;
10643;SDS011;5370;50.132;8.626;2022-07-22T09:09:56;5.85;;;5.00;;
10643;SDS011;5370;50.132;8.626;2022-07-22T09:12:22;5.35;;;4.80;;
10643;SDS011;5370;50.132;8.626;2022-07-22T09:14:49;7.32;;;5.75;;
10643;SDS011;5370;50.132;8.626;2022-07-22T09:19:52;5.15;;;4.72;;
10643;SDS011;5370;50.132;8.626;2022-07-22T09:22:37;8.68;;;5.13;;
10643;SDS011;5370;50.132;8.626;2022-07-22T09:25:27;6.88;;;4.90;;
10643;SDS011;5370;50.132;8.626;2022-07-22T09:28:09;6.55;;;5.95;;
10643;SDS011;5370;50.132;8.626;2022-07-22T09:30:36;7.90;;;4.85;;
10643;SDS011;5370;50.132;8.626;2022-07-22T09:33:03;7.18;;;4.75;;
10643;SDS011;5370;50.132;8.626;2022-07-22T09:35:29;6.80;;;5.20;;
10643;SDS011;5370;50.132;8.626;2022-07-22T09:38:06;5.85;;;5.35;;
10643;SDS011;5370;50.132;8.626;2022-07-22T09:40:34;6.03;;;5.43;;
10643;SDS011;5370;50.132;8.626;2022-07-22T09:43:05;5.60;;;5.03;;
10643;SDS011;5370;50.132;8.626;2022-07-22T09:45:36;6.50;;;5.30;;
10643;SDS011;5370;50.132;8.626;2022-07-22T09:48:13;5.85;;;5.22;;
10643;SDS011;5370;50.132;8.626;2022-07-22T09:50:39;7.93;;;5.32;;
10643;SDS011;5370;50.132;8.626;2022-07-22T09:53:05;6.65;;;5.65;;
10643;SDS011;5370;50.132;8.626;2022-07-22T09:55:31;6.63;;;5.97;;
10643;SDS011;5370;50.132;8.626;2022-07-22T09:57:58;6.75;;;5.40;;
10643;SDS011;5370;50.132;8.626;2022-07-22T10:00:25;5.57;;;5.00;;
10643;SDS011;5370;50.132;8.626;2022-07-22T10:02:53;6.75;;;5.80;;
10643;SDS011;5370;50.132;8.626;2022-07-22T10:05:21;7.25;;;5.72;;
10643;SDS011;5370;50.132;8.626;2022-07-22T10:07:50;7.18;;;5.05;;
10643;SDS011;5370;50.132;8.626;2022-07-22T10:10:17;5.80;;;4.68;;
10643;SDS011;5370;50.132;8.626;2022-07-22T10:12:45;5.20;;;4.70;;
10643;SDS011;5370;50.132;8.626;2022-07-22T10:15:14;5.45;;;4.93;;
10643;SDS011;5370;50.132;8.626;2022-07-22T10:17:41;7.88;;;4.45;;
10643;SDS011;5370;50.132;8.626;2022-07-22T10:20:09;6.68;;;4.88;;
10643;SDS011;5370;50.132;8.626;2022-07-22T10:25:04;6.40;;;5.00;;
10643;SDS011;5370;50.132;8.626;2022-07-22T10:27:43;4.88;;;4.28;;
10643;SDS011;5370;50.132;8.626;2022-07-22T10:30:21;5.32;;;4.65;;
10643;SDS011;5370;50.132;8.626;2022-07-22T10:35:37;5.72;;;4.80;;
10643;SDS011;5370;50.132;8.626;2022-07-22T10:38:23;5.03;;;4.60;;
10643;SDS011;5370;50.132;8.626;2022-07-22T10:43:30;5.40;;;4.68;;
10643;SDS011;5370;50.132;8.626;2022-07-22T10:46:16;6.60;;;5.20;;
10643;SDS011;5370;50.132;8.626;2022-07-22T10:56:27;6.38;;;4.65;;
10643;SDS011;5370;50.132;8.626;2022-07-22T10:58:58;7.60;;;4.55;;
10643;SDS011;5370;50.132;8.626;2022-07-22T11:01:29;5.15;;;4.65;;
10643;SDS011;5370;50.132;8.626;2022-07-22T11:04:06;5.78;;;5.20;;
10643;SDS011;5370;50.132;8.626;2022-07-22T11:06:36;8.43;;;5.38;;
10643;SDS011;5370;50.132;8.626;2022-07-22T11:09:03;8.55;;;5.72;;
10643;SDS011;5370;50.132;8.626;2022-07-22T11:11:40;8.70;;;5.38;;
10643;SDS011;5370;50.132;8.626;2022-07-22T11:14:12;5.97;;;5.47;;
10643;SDS011;5370;50.132;8.626;2022-07-22T11:16:38;8.10;;;4.85;;
10643;SDS011;5370;50.132;8.626;2022-07-22T11:19:04;5.93;;;5.32;;
10643;SDS011;5370;50.132;8.626;2022-07-22T11:21:31;5.38;;;4.88;;
10643;SDS011;5370;50.132;8.626;2022-07-22T11:24:00;4.35;;;3.95;;
10643;SDS011;5370;50.132;8.626;2022-07-22T11:29:25;6.28;;;5.30;;
10643;SDS011;5370;50.132;8.626;2022-07-22T11:31:53;7.07;;;5.25;;
10643;SDS011;5370;50.132;8.626;2022-07-22T11:34:19;7.47;;;4.95;;
10643;SDS011;5370;50.132;8.626;2022-07-22T11:36:47;5.10;;;4.60;;
10643;SDS011;5370;50.132;8.626;2022-07-22T11:39:14;6.55;;;4.28;;
10643;SDS011;5370;50.132;8.626;2022-07-22T11:41:43;4.68;;;4.28;;
10643;SDS011;5370;50.132;8.626;2022-07-22T11:44:08;5.13;;;4.32;;
10643;SDS011;5370;50.132;8.626;2022-07-22T11:46:41;6.45;;;4.93;;
10643;SDS011;5370;50.132;8.626;2022-07-22T11:49:07;7.22;;;4.78;;
10643;SDS011;5370;50.132;8.626;2022-07-22T11:51:34;5.40;;;4.53;;
10643;SDS011;5370;50.132;8.626;2022-07-22T11:54:02;6.10;;;4.30;;
10643;SDS011;5370;50.132;8.626;2022-07-22T11:56:28;4.63;;;4.22;;
10643;SDS011;5370;50.132;8.626;2022-07-22T11:58:54;6.53;;;5.22;;
10643;SDS011;5370;50.132;8.626;2022-07-22T12:01:22;8.20;;;4.90;;
10643;SDS011;5370;50.132;8.626;2022-07-22T12:03:50;7.60;;;4.78;;
10643;SDS011;5370;50.132;8.626;2022-07-22T12:06:22;4.35;;;4.05;;
10643;SDS011;5370;50.132;8.626;2022-07-22T12:08:55;4.47;;;4.07;;
10643;SDS011;5370;50.132;8.626;2022-07-22T12:11:27;9.35;;;4.60;;
10643;SDS011;5370;50.132;8.626;2022-07-22T12:13:53;6.15;;;4.40;;
10643;SDS011;5370;50.132;8.626;2022-07-22T12:16:26;5.22;;;4.72;;
10643;SDS011;5370;50.132;8.626;2022-07-22T12:18:59;7.55;;;4.60;;
10643;SDS011;5370;50.132;8.626;2022-07-22T12:21:33;6.90;;;4.60;;
10643;SDS011;5370;50.132;8.626;2022-07-22T12:24:01;7.55;;;4.82;;
10643;SDS011;5370;50.132;8.626;2022-07-22T12:26:46;5.38;;;4.88;;
10643;SDS011;5370;50.132;8.626;2022-07-22T12:31:43;7.32;;;4.55;;
10643;SDS011;5370;50.132;8.626;2022-07-22T12:34:36;5.32;;;4.80;;
10643;SDS011;5370;50.132;8.626;2022-07-22T12:37:19;4.82;;;4.43;;
10643;SDS011;5370;50.132;8.626;2022-07-22T12:42:27;8.00;;;5.00;;
10643;SDS011;5370;50.132;8.626;2022-07-22T12:50:31;5.25;;;4.75;;
10643;SDS011;5370;50.132;8.626;2022-07-22T12:53:20;6.18;;;4.88;;
10643;SDS011;5370;50.132;8.626;2022-07-22T12:55:47;6.43;;;5.25;;
10643;SDS011;5370;50.132;8.626;2022-07-22T12:58:16;6.72;;;5.00;;
10643;SDS011;5370;50.132;8.626;2022-07-22T13:00:43;7.68;;;5.28;;
10643;SDS011;5370;50.132;8.626;2022-07-22T13:03:10;8.88;;;5.13;;
10643;SDS011;5370;50.132;8.626;2022-07-22T13:05:36;5.80;;;5.00;;
10643;SDS011;5370;50.132;8.626;2022-07-22T13:08:02;6.03;;;5.03;;
10643;SDS011;5370;50.132;8.626;2022-07-22T13:10:28;6.40;;;5.10;;
10643;SDS011;5370;50.132;8.626;2022-07-22T13:12:54;5.90;;;5.20;;
10643;SDS011;5370;50.132;8.626;2022-07-22T13:15:21;6.15;;;5.55;;
10643;SDS011;5370;50.132;8.626;2022-07-22T13:17:47;6.60;;;5.00;;
10643;SDS011;5370;50.132;8.626;2022-07-22T13:20:15;6.97;;;5.47;;
10643;SDS011;5370;50.132;8.626;2022-07-22T13:22:42;6.88;;;5.03;;
10643;SDS011;5370;50.132;8.626;2022-07-22T13:25:08;6.13;;;4.90;;
10643;SDS011;5370;50.132;8.626;2022-07-22T13:27:34;6.78;;;5.15;;
10643;SDS011;5370;50.132;8.626;2022-07-22T13:30:00;6.28;;;4.78;;
10643;SDS011;5370;50.132;8.626;2022-07-22T13:32:26;8.15;;;4.80;;
10643;SDS011;5370;50.132;8.626;2022-07-22T13:34:51;5.53;;;4.30;;
10643;SDS011;5370;50.132;8.626;2022-07-22T13:37:17;8.05;;;4.90;;
10643;SDS011;5370;50.132;8.626;2022-07-22T13:39:43;7.57;;;4.88;;
10643;SDS011;5370;50.132;8.626;2022-07-22T13:42:12;7.25;;;4.43;;
10643;SDS011;5370;50.132;8.626;2022-07-22T13:44:38;5.82;;;4.18;;
10643;SDS011;5370;50.132;8.626;2022-07-22T13:47:03;6.85;;;4.93;;
10643;SDS011;5370;50.132;8.626;2022-07-22T13:49:29;5.43;;;4.93;;
10643;SDS011;5370;50.132;8.626;2022-07-22T13:51:55;8.40;;;5.18;;
10643;SDS011;5370;50.132;8.626;2022-07-22T13:54:21;5.57;;;4.78;;
10643;SDS011;5370;50.132;8.626;2022-07-22T13:56:46;6.45;;;4.82;;
10643;SDS011;5370;50.132;8.626;2022-07-22T13:59:14;5.95;;;5.35;;
10643;SDS011;5370;50.132;8.626;2022-07-22T14:01:41;5.18;;;4.68;;
10643;SDS011;5370;50.132;8.626;2022-07-22T14:04:07;5.00;;;4.38;;
10643;SDS011;5370;50.132;8.626;2022-07-22T14:06:33;5.70;;;4.43;;
10643;SDS011;5370;50.132;8.626;2022-07-22T14:08:59;6.57;;;5.03;;
10643;SDS011;5370;50.132;8.626;2022-07-22T14:11:25;4.93;;;4.53;;
10643;SDS011;5370;50.132;8.626;2022-07-22T14:13:50;5.68;;;4.65;;
10643;SDS011;5370;50.132;8.626;2022-07-22T14:16:16;5.25;;;4.75;;
10643;SDS011;5370;50.132;8.626;2022-07-22T14:19:00;7.20;;;4.80;;
10643;SDS011;5370;50.132;8.626;2022-07-22T14:21:29;6.22;;;5.25;;
10643;SDS011;5370;50.132;8.626;2022-07-22T14:23:55;5.72;;;4.93;;
10643;SDS011;5370;50.132;8.626;2022-07-22T14:26:20;7.68;;;5.10;;
10643;SDS011;5370;50.132;8.626;2022-07-22T14:28:46;4.90;;;4.45;;
10643;SDS011;5370;50.132;8.626;2022-07-22T14:31:12;4.70;;;4.30;;
10643;SDS011;5370;50.132;8.626;2022-07-22T14:33:37;7.72;;;4.70;;
10643;SDS011;5370;50.132;8.626;2022-07-22T14:36:03;7.32;;;5.32;;
10643;SDS011;5370;50.132;8.626;2022-07-22T14:38:29;6.57;;;4.78;;
10643;SDS011;5370;50.132;8.626;2022-07-22T14:40:55;9.68;;;4.97;;
10643;SDS011;5370;50.132;8.626;2022-07-22T14:43:20;7.63;;;4.47;;
10643;SDS011;5370;50.132;8.626;2022-07-22T14:45:46;5.18;;;4.68;;
10643;SDS011;5370;50.132;8.626;2022-07-22T14:48:12;7.30;;;4.32;;
10643;SDS011;5370;50.132;8.626;2022-07-22T14:50:37;5.25;;;4.45;;
10643;SDS011;5370;50.132;8.626;2022-07-22T14:53:03;9.18;;;5.35;;
10643;SDS011;5370;50.132;8.626;2022-07-22T14:55:28;7.13;;;4.72;;
10643;SDS011;5370;50.132;8.626;2022-07-22T14:57:54;7.18;;;5.32;;
10643;SDS011;5370;50.132;8.626;2022-07-22T15:00:19;5.55;;;4.90;;
10643;SDS011;5370;50.132;8.626;2022-07-22T15:02:45;5.07;;;4.57;;
10643;SDS011;5370;50.132;8.626;2022-07-22T15:05:10;7.97;;;4.75;;
10643;SDS011;5370;50.132;8.626;2022-07-22T15:07:36;5.03;;;4.43;;
10643;SDS011;5370;50.132;8.626;2022-07-22T15:10:02;5.30;;;4.72;;
10643;SDS011;5370;50.132;8.626;2022-07-22T15:12:28;5.03;;;4.53;;
10643;SDS011;5370;50.132;8.626;2022-07-22T15:14:53;7.50;;;4.57;;
10643;SDS011;5370;50.132;8.626;2022-07-22T15:17:19;5.65;;;5.07;;
10643;SDS011;5370;50.132;8.626;2022-07-22T15:19:44;5.15;;;4.68;;
10643;SDS011;5370;50.132;8.626;2022-07-22T15:22:10;7.45;;;4.85;;
10643;SDS011;5370;50.132;8.626;2022-07-22T15:24:36;5.72;;;5.00;;
10643;SDS011;5370;50.132;8.626;2022-07-22T15:27:01;5.07;;;4.65;;
10643;SDS011;5370;50.132;8.626;2022-07-22T15:29:27;7.50;;;4.65;;
10643;SDS011;5370;50.132;8.626;2022-07-22T15:31:54;7.85;;;4.88;;
10643;SDS011;5370;50.132;8.626;2022-07-22T15:34:19;6.88;;;4.90;;
10643;SDS011;5370;50.132;8.626;2022-07-22T15:36:45;6.68;;;4.80;;
10643;SDS011;5370;50.132;8.626;2022-07-22T15:39:11;7.93;;;5.03;;